Time;durP1;ratioP1;P1;durP2;ratioP2;P2;SDS_P1;SDS_P2;PMS_P1;PMS_P2;Temp;Humidity;BMP_temperature;BMP_pressure;BME280_temperature;BME280_humidity;BME280_pressure;Samples;Min_cycle;Max_cycle;Signal;HPM_P1;HPM_P2
2022/12/21 00:00:21;;;;;;;84.13;35.00;;;9.60;99.90;;;;;;4982025;28;20046;-89
2022/12/21 00:02:46;;;;;;;87.60;36.17;;;9.60;99.90;;;;;;5000456;28;20034;-90
2022/12/21 00:05:12;;;;;;;88.32;34.13;;;9.60;99.90;;;;;;4971240;28;20058;-90
2022/12/21 00:07:38;;;;;;;99.28;36.92;;;9.60;99.90;;;;;;4975423;28;20037;-90
2022/12/21 00:10:04;;;;;;;85.72;34.25;;;9.60;99.90;;;;;;4985737;28;20027;-89
2022/12/21 00:12:29;;;;;;;92.93;36.35;;;9.60;99.90;;;;;;4971137;28;20022;-90
2022/12/21 00:14:55;;;;;;;91.80;36.10;;;9.60;99.90;;;;;;4983675;28;20030;-90
2022/12/21 00:17:20;;;;;;;89.22;34.67;;;9.60;99.90;;;;;;4965753;28;20023;-90
2022/12/21 00:19:46;;;;;;;94.15;34.65;;;9.60;99.90;;;;;;4967434;28;20083;-90
2022/12/21 00:22:11;;;;;;;91.70;35.50;;;9.60;99.90;;;;;;4970538;28;20042;-91
2022/12/21 00:24:37;;;;;;;90.70;35.28;;;9.60;99.90;;;;;;4973322;28;20419;-91
2022/12/21 00:27:03;;;;;;;90.88;36.60;;;9.60;99.90;;;;;;4977632;28;20031;-91
2022/12/21 00:29:29;;;;;;;90.28;35.08;;;9.60;99.90;;;;;;4978061;28;20047;-90
2022/12/21 00:31:54;;;;;;;98.43;36.72;;;9.60;99.90;;;;;;4976582;28;20110;-90
2022/12/21 00:34:21;;;;;;;94.10;35.50;;;9.60;99.90;;;;;;5001191;28;20058;-91
2022/12/21 00:36:47;;;;;;;101.80;36.35;;;9.50;99.90;;;;;;4989901;28;20432;-91
2022/12/21 00:39:14;;;;;;;95.53;36.53;;;9.60;99.90;;;;;;4971793;28;20041;-91
2022/12/21 00:41:40;;;;;;;91.32;35.70;;;9.50;99.90;;;;;;4991244;28;20509;-91
2022/12/21 00:44:05;;;;;;;96.68;35.58;;;9.50;99.90;;;;;;4974502;28;20114;-91
2022/12/21 00:46:32;;;;;;;91.57;35.53;;;9.60;99.90;;;;;;4975522;28;22487;-90
2022/12/21 00:49:00;;;;;;;97.03;36.67;;;9.50;99.90;;;;;;4973412;28;20149;-90
2022/12/21 00:51:27;;;;;;;97.00;35.58;;;9.50;99.90;;;;;;4986616;28;20065;-91
2022/12/21 00:53:54;;;;;;;96.13;35.58;;;9.60;99.90;;;;;;4990053;28;20124;-92
2022/12/21 00:56:20;;;;;;;99.82;37.55;;;9.50;99.90;;;;;;4990099;28;20117;-90
2022/12/21 00:58:47;;;;;;;102.50;36.95;;;9.50;99.90;;;;;;4972256;28;21603;-91
2022/12/21 01:01:15;;;;;;;95.25;36.08;;;9.50;99.90;;;;;;4990000;28;20129;-91
2022/12/21 01:03:42;;;;;;;96.85;35.83;;;9.50;99.90;;;;;;4990639;28;20034;-90
2022/12/21 01:06:15;;;;;;;91.15;35.38;;;9.50;99.90;;;;;;4975071;28;20553;-91
2022/12/21 01:08:41;;;;;;;93.40;35.88;;;9.50;99.90;;;;;;4975004;28;20095;-91
2022/12/21 01:11:07;;;;;;;104.53;36.58;;;9.50;99.90;;;;;;4972204;28;20031;-91
2022/12/21 01:13:32;;;;;;;94.47;35.13;;;9.50;99.90;;;;;;4973345;28;20027;-90
2022/12/21 01:15:58;;;;;;;100.10;38.13;;;9.50;99.90;;;;;;4972285;28;20051;-92
2022/12/21 01:18:25;;;;;;;91.63;35.55;;;9.50;99.90;;;;;;4973654;28;20026;-91
2022/12/21 01:20:54;;;;;;;102.03;35.38;;;9.50;99.90;;;;;;4973446;28;20118;-91
2022/12/21 01:23:20;;;;;;;88.90;34.75;;;9.50;99.90;;;;;;4974301;28;20073;-90
2022/12/21 01:25:46;;;;;;;99.05;34.80;;;9.40;99.90;;;;;;4988338;28;20027;-91
2022/12/21 01:28:13;;;;;;;90.07;35.00;;;9.40;99.90;;;;;;4974157;28;20069;-92
2022/12/21 01:30:39;;;;;;;93.32;35.40;;;9.40;99.90;;;;;;4970956;28;20063;-93
2022/12/21 01:33:13;;;;;;;90.95;35.35;;;9.40;99.90;;;;;;4971034;28;20030;-90
2022/12/21 01:35:40;;;;;;;86.25;34.13;;;9.40;99.90;;;;;;4959634;28;20038;-90
2022/12/21 01:38:06;;;;;;;92.10;34.42;;;9.30;99.90;;;;;;4973004;28;20114;-91
2022/12/21 01:40:31;;;;;;;100.53;36.65;;;9.30;99.90;;;;;;4990039;28;20031;-91
2022/12/21 01:42:57;;;;;;;97.82;36.53;;;9.30;99.90;;;;;;4979258;28;20046;-90
2022/12/21 01:45:31;;;;;;;94.30;36.25;;;9.30;99.90;;;;;;4979120;28;20499;-90
2022/12/21 01:48:05;;;;;;;89.60;35.08;;;9.30;99.90;;;;;;4969208;28;20047;-91
2022/12/21 01:50:38;;;;;;;91.97;35.75;;;9.30;99.90;;;;;;4958072;28;20027;-91
2022/12/21 01:53:32;;;;;;;86.25;35.65;;;9.30;99.90;;;;;;4957513;28;20041;-91
2022/12/21 01:56:01;;;;;;;89.65;35.67;;;9.30;99.90;;;;;;4969632;28;20038;-91
2022/12/21 01:58:29;;;;;;;90.22;35.53;;;9.30;99.90;;;;;;4960568;28;20023;-90
2022/12/21 02:00:57;;;;;;;100.93;37.97;;;9.30;99.90;;;;;;4972019;28;20139;-90
2022/12/21 02:03:27;;;;;;;98.38;36.33;;;9.30;99.90;;;;;;4971377;28;20027;-90
2022/12/21 02:06:06;;;;;;;89.85;37.15;;;9.30;99.90;;;;;;4970953;28;20038;-91
2022/12/21 02:08:32;;;;;;;94.57;37.65;;;9.30;99.90;;;;;;4985457;28;20083;-91
2022/12/21 02:10:58;;;;;;;103.72;36.83;;;9.30;99.90;;;;;;4970032;28;20032;-91
2022/12/21 02:13:24;;;;;;;97.47;35.35;;;9.30;99.90;;;;;;4972871;28;20705;-91
2022/12/21 02:15:55;;;;;;;91.15;37.15;;;9.30;99.90;;;;;;4957792;28;20086;-92
2022/12/21 02:18:27;;;;;;;105.93;35.92;;;9.30;99.90;;;;;;4988118;28;20027;-90
2022/12/21 02:21:28;;;;;;;100.78;35.50;;;9.30;99.90;;;;;;4973130;28;20066;-91
2022/12/21 02:24:02;;;;;;;117.30;35.33;;;9.30;99.90;;;;;;4972751;28;20479;-91
2022/12/21 02:27:01;;;;;;;111.07;35.33;;;9.30;99.90;;;;;;4968541;28;20166;-90
2022/12/21 02:29:57;;;;;;;113.57;36.47;;;9.20;99.90;;;;;;4970654;28;20034;-91
2022/12/21 02:32:32;;;;;;;95.82;33.95;;;9.20;99.90;;;;;;4987610;28;20065;-91
2022/12/21 02:35:16;;;;;;;91.97;32.85;;;9.20;99.90;;;;;;4987189;28;20042;-90
2022/12/21 02:38:03;;;;;;;118.70;34.22;;;9.20;99.90;;;;;;4969473;28;20034;-90
2022/12/21 02:40:59;;;;;;;90.45;31.20;;;9.20;99.90;;;;;;4971066;28;20039;-90
2022/12/21 02:46:51;;;;;;;98.55;32.67;;;9.10;99.90;;;;;;4968057;28;20518;-90
2022/12/21 02:49:29;;;;;;;116.80;32.53;;;9.10;99.90;;;;;;4989657;28;20114;-91
2022/12/21 02:52:07;;;;;;;113.60;32.17;;;9.00;99.90;;;;;;4986026;28;20483;-90
2022/12/21 02:54:37;;;;;;;125.45;31.75;;;9.00;99.90;;;;;;4974952;28;20086;-92
2022/12/21 02:57:03;;;;;;;129.45;33.30;;;9.00;99.90;;;;;;4976510;28;20079;-91
2022/12/21 02:59:33;;;;;;;109.13;34.45;;;9.10;99.90;;;;;;4979327;28;20027;-91
2022/12/21 03:02:32;;;;;;;98.45;31.48;;;9.00;99.90;;;;;;4983381;28;20042;-92
2022/12/21 03:05:14;;;;;;;90.35;32.00;;;9.00;99.90;;;;;;4976201;28;20067;-91
2022/12/21 03:07:51;;;;;;;109.53;34.85;;;9.00;99.90;;;;;;4970586;28;20515;-90
2022/12/21 03:10:19;;;;;;;94.82;32.65;;;9.00;99.90;;;;;;4969441;28;20095;-91
2022/12/21 03:13:09;;;;;;;98.65;34.00;;;9.00;99.90;;;;;;4969756;28;20029;-91
2022/12/21 03:15:53;;;;;;;137.15;34.80;;;9.00;99.90;;;;;;4956353;28;20113;-90
2022/12/21 03:18:25;;;;;;;102.70;35.55;;;8.90;99.90;;;;;;4970633;28;20026;-91
2022/12/21 03:21:03;;;;;;;136.77;33.23;;;8.90;99.90;;;;;;4970410;28;20043;-91
2022/12/21 03:23:32;;;;;;;155.75;36.58;;;8.90;99.90;;;;;;4971960;28;20031;-92
2022/12/21 03:26:20;;;;;;;98.45;32.83;;;8.90;99.90;;;;;;4971452;28;20105;-91
2022/12/21 03:28:49;;;;;;;88.38;32.15;;;8.90;99.90;;;;;;4965753;28;20502;-92
2022/12/21 03:31:20;;;;;;;89.13;29.45;;;8.90;99.90;;;;;;4974423;28;20034;-91
2022/12/21 03:33:54;;;;;;;113.10;30.43;;;8.90;99.90;;;;;;4984762;28;20035;-91
2022/12/21 03:36:36;;;;;;;99.85;29.65;;;8.80;99.90;;;;;;4971144;28;20031;-91
2022/12/21 03:39:08;;;;;;;173.40;33.17;;;8.90;99.90;;;;;;4967490;28;20030;-92
2022/12/21 03:41:42;;;;;;;89.43;32.20;;;8.90;99.90;;;;;;4969079;28;20058;-90
2022/12/21 03:44:13;;;;;;;121.20;34.30;;;8.90;99.90;;;;;;4970967;28;20043;-91
2022/12/21 03:46:58;;;;;;;99.50;34.92;;;8.80;99.90;;;;;;4993321;28;20030;-91
2022/12/21 03:49:45;;;;;;;105.47;32.13;;;8.80;99.90;;;;;;5004672;28;20082;-91
2022/12/21 03:52:18;;;;;;;105.13;34.72;;;8.90;99.90;;;;;;4970057;28;20094;-91
2022/12/21 03:55:06;;;;;;;108.30;35.03;;;8.80;99.90;;;;;;4965323;28;20030;-90
2022/12/21 03:57:33;;;;;;;113.68;34.17;;;8.80;99.90;;;;;;4986091;28;20723;-89
2022/12/21 04:00:00;;;;;;;107.10;34.00;;;8.80;99.90;;;;;;4964185;28;20045;-89
2022/12/21 04:03:01;;;;;;;102.32;33.80;;;8.80;99.90;;;;;;4976307;28;20031;-88
2022/12/21 04:05:49;;;;;;;110.88;34.83;;;8.80;99.90;;;;;;4942383;28;20062;-88
2022/12/21 04:08:15;;;;;;;105.40;33.97;;;8.80;99.90;;;;;;4971415;28;20033;-89
2022/12/21 04:10:41;;;;;;;99.60;34.20;;;8.80;99.90;;;;;;4971596;28;21671;-89
2022/12/21 04:13:06;;;;;;;114.82;35.35;;;8.80;99.90;;;;;;4973694;28;20035;-87
2022/12/21 04:19:57;;;;;;;102.95;33.83;;;8.80;99.90;;;;;;4970821;28;22027;-89
2022/12/21 04:21:02;;;;;;;103.03;34.83;;;8.80;99.90;;;;;;4972100;28;20039;-88
2022/12/21 04:28:56;;;;;;;105.28;35.33;;;8.70;99.90;;;;;;4976465;28;20046;-89
2022/12/21 04:31:22;;;;;;;105.82;37.95;;;8.70;99.90;;;;;;4973634;28;20035;-90
2022/12/21 04:33:47;;;;;;;118.03;37.22;;;8.80;99.90;;;;;;4974577;28;20026;-89
2022/12/21 04:38:57;;;;;;;109.80;38.65;;;8.80;99.90;;;;;;4970384;28;20774;-91
2022/12/21 04:41:22;;;;;;;103.15;38.33;;;8.80;99.90;;;;;;4976629;28;20043;-90
2022/12/21 04:43:48;;;;;;;112.00;38.45;;;8.90;99.90;;;;;;5003294;28;20479;-90
2022/12/21 04:46:15;;;;;;;111.47;39.92;;;8.90;99.90;;;;;;4971919;28;20479;-90
2022/12/21 04:48:43;;;;;;;110.05;40.00;;;8.90;99.90;;;;;;4968592;28;20059;-89
2022/12/21 04:51:11;;;;;;;107.65;39.13;;;8.90;99.90;;;;;;4989153;28;20232;-90
2022/12/21 04:53:37;;;;;;;107.13;39.30;;;8.90;99.90;;;;;;4957734;28;20038;-90
2022/12/21 04:56:03;;;;;;;114.50;40.28;;;9.00;99.90;;;;;;4973231;28;20082;-90
2022/12/21 04:58:29;;;;;;;112.38;41.00;;;9.00;99.90;;;;;;4980191;28;20030;-92
2022/12/21 05:00:54;;;;;;;108.32;42.95;;;9.00;99.90;;;;;;4971401;28;20039;-91
2022/12/21 05:03:20;;;;;;;115.65;41.92;;;9.00;99.90;;;;;;4973937;28;20543;-91
2022/12/21 05:05:46;;;;;;;118.85;42.85;;;9.00;99.90;;;;;;4971814;28;20049;-90
2022/12/21 05:08:12;;;;;;;116.15;42.28;;;9.00;99.90;;;;;;5004655;28;20035;-91
2022/12/21 05:10:38;;;;;;;115.75;41.88;;;9.00;99.90;;;;;;4970855;28;20492;-90
2022/12/21 05:13:04;;;;;;;113.28;42.30;;;9.00;99.90;;;;;;4974841;28;20031;-90
2022/12/21 05:15:30;;;;;;;118.97;41.92;;;9.00;99.90;;;;;;4984105;28;20030;-90
2022/12/21 05:17:57;;;;;;;117.30;44.00;;;9.00;99.90;;;;;;5002655;28;20031;-90
2022/12/21 05:20:22;;;;;;;112.93;41.95;;;8.90;99.90;;;;;;4986856;28;20030;-91
2022/12/21 05:22:48;;;;;;;112.82;42.70;;;8.90;99.90;;;;;;4971524;28;20034;-90
2022/12/21 05:25:13;;;;;;;128.55;45.85;;;8.90;99.90;;;;;;4971263;28;20023;-90
2022/12/21 05:27:39;;;;;;;117.95;44.22;;;8.90;99.90;;;;;;4975047;28;20038;-92
2022/12/21 05:30:05;;;;;;;126.80;45.17;;;8.90;99.90;;;;;;4973207;28;20035;-91
2022/12/21 05:32:31;;;;;;;121.20;44.30;;;8.80;99.90;;;;;;4987473;28;20027;-91
2022/12/21 05:34:56;;;;;;;124.13;44.95;;;8.80;99.90;;;;;;5004939;28;20046;-90
2022/12/21 05:37:22;;;;;;;115.85;42.97;;;8.80;99.90;;;;;;4970958;28;20435;-91
2022/12/21 05:39:47;;;;;;;121.57;44.40;;;8.70;99.90;;;;;;4972291;28;20071;-90
2022/12/21 05:42:13;;;;;;;110.95;42.88;;;8.70;99.90;;;;;;4970324;28;20101;-92
2022/12/21 05:44:38;;;;;;;107.22;40.60;;;8.70;99.90;;;;;;4969645;28;20018;-91
2022/12/21 05:47:04;;;;;;;108.70;41.60;;;8.70;99.90;;;;;;4972742;28;20027;-91
2022/12/21 05:49:29;;;;;;;109.30;40.35;;;8.70;99.90;;;;;;4973124;28;20054;-91
2022/12/21 05:51:55;;;;;;;102.43;39.65;;;8.60;99.90;;;;;;4972371;28;20105;-90
2022/12/21 05:54:20;;;;;;;107.10;40.88;;;8.60;99.90;;;;;;4970302;28;20073;-91
2022/12/21 05:56:46;;;;;;;103.10;40.10;;;8.60;99.90;;;;;;4973752;28;20570;-90
2022/12/21 05:59:12;;;;;;;104.55;41.97;;;8.60;99.90;;;;;;4979847;28;20091;-92
2022/12/21 06:01:37;;;;;;;106.15;40.05;;;8.60;99.90;;;;;;4978315;28;20657;-92
2022/12/21 06:04:03;;;;;;;112.95;42.20;;;8.50;99.90;;;;;;4993179;28;20038;-89
2022/12/21 06:06:28;;;;;;;96.57;40.28;;;8.50;99.90;;;;;;4990979;28;20034;-91
2022/12/21 06:08:54;;;;;;;103.10;39.20;;;8.50;99.90;;;;;;4976009;28;20081;-90
2022/12/21 06:11:27;;;;;;;101.65;40.40;;;8.60;99.90;;;;;;4982658;28;20081;-90
2022/12/21 06:13:53;;;;;;;102.85;41.22;;;8.50;99.90;;;;;;4974097;28;20431;-87
2022/12/21 06:16:23;;;;;;;98.63;38.83;;;8.50;99.90;;;;;;4960435;28;20031;-90
2022/12/21 06:18:49;;;;;;;93.93;38.72;;;8.50;99.90;;;;;;4973095;28;20034;-90
2022/12/21 06:21:15;;;;;;;90.28;37.28;;;8.40;99.90;;;;;;4966798;28;20043;-92
2022/12/21 06:23:41;;;;;;;102.10;37.92;;;8.40;99.90;;;;;;4992517;28;20035;-92
2022/12/21 06:26:10;;;;;;;96.45;39.40;;;8.40;99.90;;;;;;5009884;28;20023;-92
2022/12/21 06:28:36;;;;;;;100.28;37.92;;;8.30;99.90;;;;;;4990988;28;20049;-93
2022/12/21 06:31:04;;;;;;;94.82;38.10;;;8.30;99.90;;;;;;4975986;28;20058;-92
2022/12/21 06:33:30;;;;;;;100.35;37.40;;;8.30;99.90;;;;;;5005844;28;20023;-93
2022/12/21 06:35:56;;;;;;;97.00;38.08;;;8.20;99.90;;;;;;5005711;28;20023;-93
2022/12/21 06:38:23;;;;;;;92.72;38.13;;;8.20;99.90;;;;;;4975600;28;20035;-93
2022/12/21 06:40:56;;;;;;;91.97;38.50;;;8.20;99.90;;;;;;4988266;28;20624;-92
2022/12/21 06:43:23;;;;;;;92.13;37.00;;;8.20;99.90;;;;;;4966148;28;20399;-92
2022/12/21 06:45:57;;;;;;;98.72;38.20;;;8.20;99.90;;;;;;4975070;28;20031;-91
2022/12/21 06:48:24;;;;;;;104.18;39.70;;;8.20;99.90;;;;;;4973671;28;20058;-92
2022/12/21 06:50:52;;;;;;;92.25;38.88;;;8.20;99.90;;;;;;4991625;28;20023;-91
2022/12/21 06:53:18;;;;;;;92.40;37.33;;;8.20;99.90;;;;;;4951205;28;20030;-90
2022/12/21 06:55:43;;;;;;;87.53;37.80;;;8.20;99.90;;;;;;4969585;28;20031;-91
2022/12/21 06:58:09;;;;;;;87.15;36.63;;;8.20;99.90;;;;;;4971074;28;20039;-90
2022/12/21 07:00:34;;;;;;;86.70;35.75;;;8.20;99.90;;;;;;4959559;28;20027;-91
2022/12/21 07:03:00;;;;;;;83.45;34.03;;;8.20;99.90;;;;;;4957034;28;20022;-92
2022/12/21 07:05:25;;;;;;;86.00;35.42;;;8.30;99.90;;;;;;4979874;28;20117;-92
2022/12/21 07:07:51;;;;;;;75.60;34.55;;;8.30;99.90;;;;;;4958904;28;20053;-90
2022/12/21 07:10:16;;;;;;;78.60;32.70;;;8.30;99.90;;;;;;4994328;28;20031;-90
2022/12/21 07:12:42;;;;;;;81.35;35.38;;;8.30;99.90;;;;;;4992602;28;20376;-90
2022/12/21 07:15:08;;;;;;;76.75;32.17;;;8.30;99.90;;;;;;4988716;28;20031;-90
2022/12/21 07:17:33;;;;;;;74.90;32.08;;;8.30;99.90;;;;;;5002398;28;20491;-90
2022/12/21 07:19:59;;;;;;;69.97;31.48;;;8.30;99.90;;;;;;4988299;28;20023;-90
2022/12/21 07:22:24;;;;;;;65.15;30.67;;;8.20;99.90;;;;;;4977926;28;20045;-91
2022/12/21 07:24:50;;;;;;;72.75;30.48;;;8.20;99.90;;;;;;4974045;28;20015;-90
2022/12/21 07:27:16;;;;;;;61.30;28.40;;;8.10;99.90;;;;;;4981848;28;20063;-89
2022/12/21 07:29:41;;;;;;;61.47;30.02;;;8.10;99.90;;;;;;4968948;28;20023;-90
2022/12/21 07:32:07;;;;;;;62.47;27.52;;;8.00;99.90;;;;;;4987937;28;20026;-90
2022/12/21 07:34:32;;;;;;;58.25;28.63;;;8.00;99.90;;;;;;4959463;28;20101;-89
2022/12/21 07:36:58;;;;;;;63.20;27.85;;;8.00;99.90;;;;;;4974751;28;20034;-90
2022/12/21 07:39:23;;;;;;;57.38;27.15;;;8.00;99.90;;;;;;4983229;28;20022;-90
2022/12/21 07:41:49;;;;;;;57.83;26.63;;;8.00;99.90;;;;;;4985298;28;21992;-89
2022/12/21 07:44:14;;;;;;;55.35;25.52;;;8.00;99.90;;;;;;4989742;28;20023;-90
2022/12/21 07:46:40;;;;;;;52.35;25.13;;;8.00;99.90;;;;;;4973490;28;20062;-92
2022/12/21 07:49:06;;;;;;;52.20;25.55;;;8.00;99.90;;;;;;4985718;28;20046;-89
2022/12/21 07:51:31;;;;;;;49.90;24.77;;;8.00;99.90;;;;;;4956810;28;20035;-90
2022/12/21 07:53:57;;;;;;;52.78;24.85;;;7.90;99.90;;;;;;4990507;28;20507;-89
2022/12/21 07:56:22;;;;;;;49.38;23.08;;;7.90;99.90;;;;;;4983883;28;20027;-91
2022/12/21 07:58:48;;;;;;;53.42;24.70;;;7.90;99.90;;;;;;4987431;28;20026;-92
2022/12/21 08:01:16;;;;;;;51.72;24.50;;;8.00;99.90;;;;;;4971573;28;20480;-91
2022/12/21 08:03:44;;;;;;;47.22;22.17;;;8.00;99.90;;;;;;4972184;28;20496;-91
2022/12/21 08:06:10;;;;;;;43.50;21.27;;;8.00;99.90;;;;;;4973198;28;20484;-91
2022/12/21 08:08:37;;;;;;;45.33;22.20;;;8.00;99.90;;;;;;4988662;28;20045;-91
2022/12/21 08:11:02;;;;;;;45.75;23.23;;;8.00;99.90;;;;;;4971057;28;20464;-90
2022/12/21 08:13:29;;;;;;;46.25;21.52;;;8.00;99.90;;;;;;4988740;28;20033;-91
2022/12/21 08:16:02;;;;;;;46.67;20.52;;;8.00;99.90;;;;;;5003868;28;20026;-89
2022/12/21 08:18:28;;;;;;;41.15;20.08;;;8.00;99.90;;;;;;4986861;28;20024;-89
2022/12/21 08:20:55;;;;;;;39.08;20.20;;;8.00;99.90;;;;;;4998267;28;20507;-90
2022/12/21 08:23:21;;;;;;;37.53;19.92;;;8.10;99.90;;;;;;4982779;28;20046;-90
2022/12/21 08:25:46;;;;;;;39.15;18.85;;;8.10;99.90;;;;;;4956729;28;20058;-91
2022/12/21 08:28:12;;;;;;;41.05;19.17;;;8.00;99.90;;;;;;4969866;28;20045;-91
2022/12/21 08:30:38;;;;;;;39.55;18.30;;;8.00;99.90;;;;;;4989262;28;20022;-90
2022/12/21 08:33:04;;;;;;;34.00;16.42;;;8.00;99.90;;;;;;4986859;28;20034;-93
2022/12/21 08:35:29;;;;;;;35.80;17.20;;;7.90;99.90;;;;;;4973388;28;20034;-92
2022/12/21 08:37:55;;;;;;;33.38;16.30;;;7.90;99.90;;;;;;4975124;28;20031;-91
2022/12/21 08:40:21;;;;;;;32.72;15.70;;;7.80;99.90;;;;;;4975030;28;20049;-91
2022/12/21 08:42:46;;;;;;;27.52;14.73;;;7.80;99.90;;;;;;4968916;28;20073;-90
2022/12/21 08:45:12;;;;;;;28.58;15.93;;;7.70;99.90;;;;;;4992216;28;20019;-92
2022/12/21 08:47:38;;;;;;;35.35;16.15;;;7.80;99.90;;;;;;5009510;28;20042;-92
2022/12/21 08:50:05;;;;;;;30.20;15.30;;;7.70;99.90;;;;;;4959491;28;20027;-91
2022/12/21 08:52:31;;;;;;;29.08;15.07;;;7.70;99.90;;;;;;4957972;28;20018;-92
2022/12/21 08:54:57;;;;;;;31.40;14.40;;;7.70;99.90;;;;;;4997156;28;20704;-92
2022/12/21 08:57:23;;;;;;;31.70;14.48;;;7.80;99.90;;;;;;4957988;28;20031;-90
2022/12/21 08:59:48;;;;;;;31.80;13.80;;;7.80;99.90;;;;;;4974236;28;20031;-92
2022/12/21 09:02:14;;;;;;;29.65;13.63;;;7.90;99.90;;;;;;4972850;28;20038;-92
2022/12/21 09:04:39;;;;;;;31.95;15.63;;;7.90;99.90;;;;;;4964717;28;20018;-90
2022/12/21 09:07:06;;;;;;;32.22;14.40;;;7.90;99.90;;;;;;4980067;28;20030;-91
2022/12/21 09:09:33;;;;;;;35.20;14.38;;;7.90;99.90;;;;;;4958760;28;20034;-91
2022/12/21 09:11:59;;;;;;;37.30;14.95;;;8.00;99.90;;;;;;4961618;28;20121;-90
2022/12/21 09:14:25;;;;;;;28.73;14.27;;;8.00;99.90;;;;;;4989735;28;20119;-89
2022/12/21 09:16:51;;;;;;;27.45;14.90;;;8.10;99.90;;;;;;4972165;28;20027;-90
2022/12/21 09:19:17;;;;;;;28.58;14.68;;;8.10;99.90;;;;;;4977197;28;20035;-90
2022/12/21 09:21:42;;;;;;;30.55;15.07;;;8.20;99.90;;;;;;4990167;28;20042;-84
2022/12/21 09:24:08;;;;;;;33.50;15.25;;;8.20;99.90;;;;;;4985040;28;20023;-91
2022/12/21 09:26:34;;;;;;;37.47;15.30;;;8.20;99.90;;;;;;4959299;28;20034;-90
2022/12/21 09:28:59;;;;;;;28.77;15.45;;;8.30;99.90;;;;;;4975171;28;20486;-91
2022/12/21 09:31:25;;;;;;;40.58;16.50;;;8.30;99.90;;;;;;4959302;28;20676;-90
2022/12/21 09:33:53;;;;;;;35.10;16.80;;;8.40;99.90;;;;;;4998657;28;20022;-90
2022/12/21 09:36:19;;;;;;;34.47;16.40;;;8.40;99.90;;;;;;4988582;28;20059;-89
2022/12/21 09:38:45;;;;;;;35.63;17.08;;;8.50;99.90;;;;;;4958293;28;20484;-90
2022/12/21 09:41:28;;;;;;;38.47;16.95;;;8.50;99.90;;;;;;4957078;28;20046;-91
2022/12/21 09:44:09;;;;;;;48.63;16.90;;;8.60;99.90;;;;;;4956135;28;20078;-90
2022/12/21 09:46:37;;;;;;;33.63;16.83;;;8.60;99.90;;;;;;4956974;28;20431;-91
2022/12/21 09:49:16;;;;;;;34.15;15.82;;;8.60;99.90;;;;;;4966494;28;20054;-91
2022/12/21 09:51:59;;;;;;;39.00;17.25;;;8.70;99.90;;;;;;4971081;28;20076;-91
2022/12/21 09:54:31;;;;;;;43.88;17.83;;;8.70;99.90;;;;;;4985530;28;20695;-92
2022/12/21 09:56:56;;;;;;;40.45;18.23;;;8.70;99.90;;;;;;4970473;28;20031;-91
2022/12/21 09:59:22;;;;;;;38.70;17.48;;;8.80;99.90;;;;;;4972018;28;20030;-92
2022/12/21 10:02:05;;;;;;;36.58;19.08;;;8.80;99.90;;;;;;4990490;28;20124;-93
2022/12/21 10:04:39;;;;;;;;;;;8.80;99.90;;;;;;4973010;28;20027;-93
2022/12/21 10:07:19;;;;;;;38.35;18.23;;;8.80;99.90;;;;;;5001665;28;19909;-92
2022/12/21 10:09:50;;;;;;;42.60;19.35;;;8.80;99.90;;;;;;4988389;28;20395;-91
2022/12/21 10:12:25;;;;;;;42.83;21.15;;;8.80;99.90;;;;;;4968559;28;20092;-92
2022/12/21 10:15:28;;;;;;;40.13;20.17;;;8.80;99.90;;;;;;4991597;28;20047;-92
2022/12/21 10:18:03;;;;;;;42.60;21.70;;;8.80;99.90;;;;;;5012640;28;20054;-92
2022/12/21 10:20:40;;;;;;;48.17;22.58;;;8.90;99.90;;;;;;4976026;28;20455;-92
2022/12/21 10:23:18;;;;;;;45.83;23.52;;;8.90;99.90;;;;;;4973789;28;20038;-92
2022/12/21 10:25:47;;;;;;;52.80;24.33;;;8.90;99.90;;;;;;4986158;28;20021;-93
2022/12/21 10:28:37;;;;;;;56.10;26.80;;;8.90;99.90;;;;;;4979125;28;20092;-91
2022/12/21 10:31:10;;;;;;;64.60;29.88;;;9.00;99.90;;;;;;5005215;28;20033;-93
2022/12/21 10:33:39;;;;;;;59.42;29.73;;;8.90;99.90;;;;;;4978166;28;20057;-92
2022/12/21 10:36:06;;;;;;;64.78;31.13;;;8.90;99.90;;;;;;4976559;28;20018;-93
2022/12/21 10:38:34;;;;;;;61.40;31.80;;;8.90;99.90;;;;;;4975529;28;20038;-92
2022/12/21 10:41:03;;;;;;;55.13;30.15;;;8.90;99.90;;;;;;4996871;28;20129;-93
2022/12/21 10:43:36;;;;;;;63.00;32.30;;;8.90;99.90;;;;;;4990243;28;20034;-93
2022/12/21 10:46:01;;;;;;;66.65;31.98;;;8.90;99.90;;;;;;4994125;28;20030;-93
2022/12/21 10:48:27;;;;;;;69.75;33.00;;;9.00;99.90;;;;;;4972249;28;20096;-92
2022/12/21 10:50:54;;;;;;;65.97;33.47;;;9.00;99.90;;;;;;4977131;28;20023;-92
2022/12/21 10:53:27;;;;;;;62.20;33.35;;;9.00;99.90;;;;;;4995595;28;20037;-90
2022/12/21 10:55:56;;;;;;;67.95;32.97;;;9.00;99.90;;;;;;4990377;28;20022;-93
2022/12/21 10:58:34;;;;;;;61.30;31.65;;;9.10;99.90;;;;;;4993130;28;20092;-92
2022/12/21 11:01:06;;;;;;;63.00;30.13;;;9.10;99.90;;;;;;4992889;28;20046;-94
2022/12/21 11:03:37;;;;;;;51.72;28.55;;;9.10;99.90;;;;;;4989831;28;20041;-93
2022/12/21 11:06:18;;;;;;;52.35;27.38;;;9.10;99.90;;;;;;4989402;28;20114;-92
2022/12/21 11:08:49;;;;;;;47.72;25.17;;;9.10;99.90;;;;;;4971955;28;20034;-92
2022/12/21 11:11:33;;;;;;;52.80;24.42;;;9.10;99.90;;;;;;4973443;28;20030;-93
2022/12/21 11:14:12;;;;;;;42.85;21.63;;;9.10;99.90;;;;;;4989243;28;20062;-93
2022/12/21 11:16:38;;;;;;;44.80;22.48;;;9.00;99.90;;;;;;4992871;28;20050;-95
2022/12/21 11:19:07;;;;;;;40.78;20.65;;;9.10;99.90;;;;;;4977508;28;20515;-93
2022/12/21 11:21:46;;;;;;;41.90;18.73;;;9.00;99.90;;;;;;4990616;28;20039;-93
2022/12/21 11:24:17;;;;;;;35.25;17.90;;;9.00;99.90;;;;;;4994327;28;20101;-93
2022/12/21 11:26:49;;;;;;;39.80;17.55;;;9.10;99.90;;;;;;4973049;28;20026;-93
2022/12/21 11:29:23;;;;;;;41.25;17.75;;;9.10;99.90;;;;;;4970939;28;20495;-93
2022/12/21 11:31:50;;;;;;;33.50;15.15;;;9.10;99.90;;;;;;4977863;28;20034;-94
2022/12/21 11:34:43;;;;;;;37.58;15.85;;;9.10;99.90;;;;;;4970063;28;20118;-93
2022/12/21 11:37:23;;;;;;;38.80;16.45;;;9.20;99.90;;;;;;4977803;28;20065;-93
2022/12/21 11:39:49;;;;;;;31.08;15.38;;;9.30;99.90;;;;;;4976384;28;20486;-93
2022/12/21 11:42:20;;;;;;;34.25;15.82;;;9.30;99.90;;;;;;4974001;28;20041;-93
2022/12/21 11:44:48;;;;;;;32.78;15.68;;;9.30;99.90;;;;;;4989767;28;20467;-92
2022/12/21 11:47:59;;;;;;;38.65;16.67;;;9.30;99.90;;;;;;4988569;28;20701;-92
2022/12/21 11:50:35;;;;;;;30.05;15.10;;;9.30;99.90;;;;;;4955087;28;20038;-91
2022/12/21 11:53:04;;;;;;;41.65;16.38;;;9.30;99.90;;;;;;4994046;28;20022;-92
2022/12/21 11:55:40;;;;;;;27.25;14.68;;;9.40;99.90;;;;;;4995207;28;20450;-93
2022/12/21 11:58:32;;;;;;;32.05;16.38;;;9.40;99.90;;;;;;4975248;28;20455;-91
2022/12/21 12:01:21;;;;;;;35.92;16.13;;;9.40;99.90;;;;;;4991666;28;20031;-93
2022/12/21 12:04:22;;;;;;;36.90;17.45;;;9.30;99.90;;;;;;4990113;28;20062;-92
2022/12/21 12:07:00;;;;;;;35.97;18.52;;;9.40;99.90;;;;;;4974358;28;20033;-92
2022/12/21 12:10:05;;;;;;;33.95;17.90;;;9.30;99.90;;;;;;4989492;28;20026;-90
2022/12/21 12:12:56;;;;;;;27.85;16.85;;;9.30;99.90;;;;;;4990693;28;20454;-93
2022/12/21 12:15:25;;;;;;;35.00;17.50;;;9.30;99.90;;;;;;4969860;28;20022;-92
2022/12/21 12:18:01;;;;;;;30.80;17.02;;;9.40;99.90;;;;;;4989038;28;20026;-91
2022/12/21 12:20:47;;;;;;;30.65;17.08;;;9.40;99.90;;;;;;4977779;28;20048;-92
2022/12/21 12:23:16;;;;;;;33.88;18.83;;;9.40;99.90;;;;;;5001621;28;20471;-91
2022/12/21 12:25:53;;;;;;;87.10;26.52;;;9.40;99.90;;;;;;4986569;28;20022;-91
2022/12/21 12:28:25;;;;;;;34.30;17.20;;;9.50;99.90;;;;;;4989760;28;20488;-92
2022/12/21 12:31:06;;;;;;;32.08;17.13;;;9.50;99.90;;;;;;4977351;28;20034;-90
2022/12/21 12:33:49;;;;;;;31.38;15.95;;;9.50;99.90;;;;;;4982299;28;20590;-92
2022/12/21 12:36:33;;;;;;;28.90;15.38;;;9.50;99.90;;;;;;5014860;28;20030;-90
2022/12/21 12:39:10;;;;;;;33.03;17.00;;;9.50;99.90;;;;;;4989618;28;20034;-92
2022/12/21 12:42:23;;;;;;;30.20;16.10;;;9.50;99.90;;;;;;4981219;28;20050;-92
2022/12/21 12:45:07;;;;;;;24.05;14.18;;;9.60;99.90;;;;;;4923618;29;20059;-93
2022/12/21 12:47:56;;;;;;;35.00;16.02;;;9.60;99.90;;;;;;4985327;28;20554;-91
2022/12/21 12:50:22;;;;;;;28.55;16.23;;;9.60;99.90;;;;;;4970199;28;20391;-89
2022/12/21 12:53:17;;;;;;;29.80;16.45;;;9.70;99.90;;;;;;4980379;28;20027;-91
2022/12/21 12:55:53;;;;;;;32.22;16.20;;;9.70;99.90;;;;;;4972925;28;20082;-90
2022/12/21 12:58:26;;;;;;;27.73;16.00;;;9.70;99.90;;;;;;4964073;28;20037;-91
2022/12/21 13:01:11;;;;;;;32.03;15.30;;;9.70;99.90;;;;;;4999541;28;20490;-92
2022/12/21 13:04:18;;;;;;;29.98;15.55;;;9.70;99.90;;;;;;5000010;28;20165;-91
2022/12/21 13:07:04;;;;;;;27.80;15.75;;;9.70;99.90;;;;;;4973329;28;20117;-91
2022/12/21 13:09:49;;;;;;;31.63;15.75;;;9.70;99.90;;;;;;4980647;28;20122;-92